Flight Track Log - Related Links

Times and Time Zones

All times are in EDT time to prevent confusion due to time zone crossing. See the OPT732 flight status page for this flight to view local times or setup timezone preferences in your user account.

Time Position Orientation Groundspeed Altitude Reporting Facility
EDT Latitude Longitude Course Direction KTS MPH feet Rate Location/Type
Wed 01:09:40 PM 30.1114 -97.7003 327° Northwest 235 270 5,900  Level Houston Center
Wed 01:10:42 PM 30.1631 -97.7556 317° Northwest 260 299 10,300 2,927 Climbing Houston Center
Wed 01:11:43 PM 30.2378 -97.7778 346° North 273 314 11,900 1,122 Climbing Houston Center
Wed 01:12:45 PM 30.3181 -97.8075 342° North 292 336 12,600 1,548 Climbing Houston Center
Wed 01:13:47 PM 30.4169 -97.8464 341° North 313 360 15,100 2,323 Climbing Houston Center
Wed 01:14:00 PM 30.7936 -97.8424 327° Northwest  Level FlightAware Approximate
Wed 01:14:49 PM 30.5044 -97.8808 341° North 326 375 17,400  Level Houston Center
Wed 01:15:51 PM 30.5947 -97.9142 342° North 333 383 19,700 2,146 Climbing Houston Center
Wed 01:16:52 PM 30.6883 -97.9503 342° North 346 398 21,800 2,049 Climbing Houston Center
Wed 01:17:54 PM 30.7853 -97.9875 342° North 358 412 23,900 2,177 Climbing Houston Center
Wed 01:18:56 PM 30.8894 -97.9747 North 377 434 26,300 2,188 Climbing Houston Center
Wed 01:19:30 PM 30.9428 -97.9558 17° North 371 427 27,400 1,979 Climbing Fort Worth Center
Wed 01:20:30 PM 31.0494 -97.9128 19° North 387 445 29,400 2,050 Climbing Fort Worth Center
Wed 01:21:30 PM 31.1539 -97.8722 18° North 392 451 31,500 1,800 Climbing Fort Worth Center
Wed 01:22:30 PM 31.2669 -97.8289 18° North 412 474 33,000 1,500 Climbing Fort Worth Center
Wed 01:23:30 PM 31.3922 -97.7783 19° North 425 489 34,500 1,550 Climbing Fort Worth Center
Wed 01:24:30 PM 31.5114 -97.7350 17° North 431 496 36,100 1,850 Climbing Fort Worth Center
Wed 01:25:30 PM 31.6264 -97.6867 20° North 443 510 38,200 1,900 Climbing Fort Worth Center
Wed 01:26:30 PM 31.7433 -97.6406 19° North 443 510 39,900 1,250 Climbing Fort Worth Center
Wed 01:27:30 PM 31.8603 -97.5944 19° North 438 504 40,700 600 Climbing Fort Worth Center
Wed 01:28:30 PM 31.9606 -97.5308 28° Northeast 443 510 41,100 400 Climbing Fort Worth Center
Wed 01:29:30 PM 32.0525 -97.4011 50° Northeast 460 529 41,500 450 Climbing Fort Worth Center
Wed 01:30:30 PM 32.1381 -97.2931 47° Northeast 489 563 42,000 750 Climbing Fort Worth Center
Wed 01:31:30 PM 32.2444 -97.1728 44° Northeast 489 563 43,000 650 Climbing Fort Worth Center
Wed 01:32:30 PM 32.3569 -97.1306 18° North 466 536 43,300 450 Climbing Fort Worth Center
Wed 01:33:30 PM 32.4989 -97.1153 North 458 527 43,900 450 Climbing Fort Worth Center
Wed 01:34:30 PM 32.6139 -97.1372 351° North 458 527 44,200 300 Climbing Fort Worth Center
Wed 01:35:30 PM 32.7539 -97.1664 350° North 468 539 44,500 300 Climbing Fort Worth Center
Wed 01:36:30 PM 32.8708 -97.1908 350° North 468 539 44,800 250 Climbing Fort Worth Center
Wed 01:37:30 PM 33.0169 -97.1781 North 468 539 45,000 100 Climbing Fort Worth Center
Wed 01:38:30 PM 33.1336 -97.1506 11° North 473 544 45,000  Level Fort Worth Center
Wed 01:39:30 PM 33.2819 -97.1103 13° North 479 551 45,000  Level Fort Worth Center
Wed 01:40:30 PM 33.4194 -97.0775 11° North 491 565 45,000  Level Fort Worth Center
Wed 01:41:30 PM 33.5383 -97.0447 13° North 486 559 45,000  Level Fort Worth Center
Wed 01:42:30 PM 33.6886 -97.0042 13° North 486 559 45,000  Level Fort Worth Center
Wed 01:43:30 PM 33.8117 -96.9736 12° North 492 566 45,000  Level Fort Worth Center
Wed 01:44:30 PM 33.9553 -96.9328 13° North 484 557 45,000  Level Fort Worth Center
Wed 01:45:30 PM 34.0908 -96.8969 12° North 489 563 45,000  Level Fort Worth Center
Wed 01:46:30 PM 34.2242 -96.8583 13° North 489 563 45,000  Level Fort Worth Center
Wed 01:47:30 PM 34.3578 -96.8222 13° North 489 563 45,000  Level Fort Worth Center
Wed 01:48:30 PM 34.4931 -96.7886 12° North 489 563 45,000  Level Fort Worth Center
Wed 01:49:30 PM 34.6264 -96.7497 13° North 489 563 45,000  Level Fort Worth Center
Wed 01:50:30 PM 34.7639 -96.7133 12° North 489 563 45,000  Level Fort Worth Center
Wed 01:51:30 PM 34.8972 -96.6744 13° North 489 563 45,000  Level Fort Worth Center
Wed 01:52:30 PM 35.0325 -96.6350 13° North 489 563 45,000  Level Fort Worth Center
Wed 01:54:08 PM 35.2478 -96.5739 13° North 502 578 45,000  Level Kansas City Center
Wed 01:55:10 PM 35.3847 -96.5356 13° North 505 581 45,000  Level Kansas City Center
Wed 01:56:12 PM 35.5197 -96.4969 13° North 504 580 45,000  Level Kansas City Center
Wed 01:57:14 PM 35.6825 -96.4517 13° North 503 579 45,000  Level Kansas City Center
Wed 01:58:16 PM 35.8189 -96.4136 13° North 504 580 45,000  Level Kansas City Center
Wed 01:59:18 PM 35.9611 -96.3744 13° North 508 585 45,000  Level Kansas City Center
Wed 02:00:20 PM 36.1008 -96.3350 13° North 511 588 45,000  Level Kansas City Center
Wed 02:01:22 PM 36.2406 -96.2953 13° North 512 589 45,000  Level Kansas City Center
Wed 02:02:24 PM 36.3811 -96.2547 13° North 513 590 45,000  Level Kansas City Center
Wed 02:03:26 PM 36.5208 -96.2156 13° North 511 588 45,000  Level Kansas City Center
Wed 02:04:28 PM 36.6606 -96.1733 14° North 512 589 45,000  Level Kansas City Center
Wed 02:05:30 PM 36.8292 -96.1256 13° North 512 589 45,000  Level Kansas City Center
Wed 02:06:32 PM 36.9692 -96.0853 13° North 512 589 45,000  Level Kansas City Center
Wed 02:07:34 PM 37.1089 -96.0444 13° North 512 589 45,000  Level Kansas City Center
Wed 02:08:36 PM 37.2481 -96.0019 14° North 512 589 45,000  Level Kansas City Center
Wed 02:09:38 PM 37.3878 -95.9628 13° North 512 589 45,000  Level Kansas City Center
Wed 02:10:40 PM 37.5267 -95.9206 14° North 511 588 45,000  Level Kansas City Center
Wed 02:11:42 PM 37.6658 -95.8794 13° North 511 588 45,000  Level Kansas City Center
Wed 02:12:44 PM 37.8044 -95.8392 13° North 508 585 45,000  Level Kansas City Center
Wed 02:13:46 PM 37.9628 -95.7917 13° North 510 587 45,000  Level Kansas City Center
Wed 02:14:48 PM 38.0947 -95.7522 13° North 508 585 45,000  Level Kansas City Center
Wed 02:15:50 PM 38.2483 -95.7061 13° North 508 585 45,000  Level Kansas City Center
Wed 02:16:52 PM 38.3792 -95.6658 14° North 506 582 45,000  Level Kansas City Center
Wed 02:17:55 PM 38.5325 -95.6186 14° North 505 581 45,000  Level Kansas City Center
Wed 02:18:57 PM 38.6636 -95.5783 13° North 505 581 45,000  Level Kansas City Center
Wed 02:19:59 PM 38.8178 -95.5297 14° North 507 583 45,000  Level Kansas City Center
Wed 02:21:01 PM 38.9500 -95.4889 14° North 508 585 45,000  Level Kansas City Center
Wed 02:22:03 PM 39.1011 -95.4425 13° North 507 583 45,000  Level Kansas City Center
Wed 02:23:05 PM 39.2503 -95.3958 14° North 511 588 45,000  Level Kansas City Center
Wed 02:24:07 PM 39.3883 -95.3533 13° North 510 587 45,000  Level Kansas City Center
Wed 02:25:09 PM 39.5272 -95.3106 13° North 510 587 45,000  Level Kansas City Center
Wed 02:26:11 PM 39.6633 -95.2675 14° North 511 588 45,000  Level Kansas City Center
Wed 02:27:13 PM 39.8175 -95.2183 14° North 511 588 45,000  Level Kansas City Center
Wed 02:27:45 PM 39.8817 -95.1981 14° North 511 588 45,000  Level Minneapolis Center
Wed 02:28:15 PM 39.9497 -95.1775 13° North 510 587 45,000  Level Kansas City Center
Wed 02:29:17 PM 40.0831 -95.1350 14° North 511 588 45,000  Level Kansas City Center
Wed 02:29:48 PM 40.1572 -95.1100 14° North 511 588 45,000  Level Minneapolis Center
Wed 02:30:50 PM 40.2956 -95.0639 14° North 512 589 45,000 -146 Level Minneapolis Center
Wed 02:31:51 PM 40.4342 -95.0203 13° North 513 590 44,700 -683 Descending Minneapolis Center
Wed 02:32:53 PM 40.6031 -94.9658 14° North 519 597 43,600 -1,210 Descending Minneapolis Center
Wed 02:33:55 PM 40.7447 -94.9206 14° North 524 603 42,200 -1,597 Descending Minneapolis Center
Wed 02:34:57 PM 40.8786 -94.8761 14° North 510 587 40,300 -1,561 Descending Minneapolis Center
Wed 02:35:58 PM 41.0086 -94.8336 14° North 493 567 39,000 -634 Descending Minneapolis Center
Wed 02:37:00 PM 41.1486 -94.7878 14° North 506 582 39,000  Level Minneapolis Center
Wed 02:38:02 PM 41.2953 -94.7367 15° North 531 611 39,000  Level Minneapolis Center
Wed 02:39:04 PM 41.4639 -94.6422 23° Northeast 549 632 39,000  Level Minneapolis Center
Wed 02:40:06 PM 41.6031 -94.5611 24° Northeast 549 632 39,000  Level Minneapolis Center
Wed 02:41:19 PM 41.7417 -94.4797 24° Northeast 547 629 39,000  Level Minneapolis Center
Wed 02:42:22 PM 41.9094 -94.3811 24° Northeast 549 632 39,000  Level Minneapolis Center
Wed 02:43:23 PM 42.0506 -94.2994 23° Northeast 550 633 39,000  Level Minneapolis Center
Wed 02:44:25 PM 42.1906 -94.2144 24° Northeast 553 636 39,000  Level Minneapolis Center
Wed 02:45:27 PM 42.3333 -94.1286 24° Northeast 546 628 39,000  Level Minneapolis Center
Wed 02:46:29 PM 42.4689 -94.0492 23° Northeast 535 616 39,000  Level Minneapolis Center
Wed 02:47:30 PM 42.6294 -93.9517 24° Northeast 531 611 39,000  Level Minneapolis Center
Wed 02:48:32 PM 42.7619 -93.8706 24° Northeast 526 605 39,000  Level Minneapolis Center
Wed 02:49:34 PM 42.8964 -93.7964 22° Northeast 525 604 39,000 -677 Level Minneapolis Center
Wed 02:50:36 PM 43.0367 -93.7622 10° North 515 593 37,600 -1,597 Descending Minneapolis Center
Wed 02:51:38 PM 43.1775 -93.7267 10° North 514 592 35,700 -2,000 Descending Minneapolis Center
Wed 02:52:39 PM 43.3303 -93.6903 10° North 546 628 33,500 -2,488 Descending Minneapolis Center
Wed 02:53:41 PM 43.5178 -93.6431 10° North 569 655 30,600 -3,532 Descending Minneapolis Center
Wed 02:54:43 PM 43.6639 -93.6053 11° North 561 646 26,200 -3,532 Descending Minneapolis Center
Wed 02:55:45 PM 43.7978 -93.5722 10° North 508 585 23,300 -3,317 Descending Minneapolis Center
Wed 02:56:46 PM 43.9275 -93.5408 10° North 481 554 19,400 -3,659 Descending Minneapolis Center
Wed 02:57:48 PM 44.0478 -93.5083 11° North 445 512 15,800 -3,581 Descending Minneapolis Center
Wed 02:58:50 PM 44.1822 -93.4744 10° North 400 460 12,000 -3,145 Descending Minneapolis Center
Wed 02:59:52 PM 44.2828 -93.4597 North 362 417 9,300 -1,600 Descending Minneapolis Center
Wed 03:01:05 PM 44.3625 -93.4581 North 282 325 8,400 -971 Descending Minneapolis Center
Wed 03:02:08 PM 44.4450 -93.4408 North 249 287 7,100 -1,632 Descending Minneapolis Center
Wed 03:03:21 PM 44.5081 -93.4114 18° North 241 277 4,700 -1,378 Descending Minneapolis Center
Wed 03:04:23 PM 44.5794 -93.3783 18° North 225 259 4,000 -774 Descending Minneapolis Center
Wed 03:05:25 PM 44.6475 -93.3464 18° North 216 249 3,100 -726 Descending Minneapolis Center
Wed 03:06:27 PM 44.6975 -93.3233 18° North 188 216 2,500 -290 Descending Minneapolis Center
Wed 03:07:29 PM 44.7475 -93.3000 18° North 186 214 2,500 -195 Level Minneapolis Center
Wed 03:08:30 PM 44.7933 -93.3089 352° North 169 194 2,100 -244 Descending Minneapolis Center
Wed 03:09:32 PM 44.8114 -93.3586 297° West 143 165 2,000 -387 Descending Minneapolis Center
Wed 03:10:34 PM 44.8197 -93.4039 285° West 119 137 1,300 -532 Descending Minneapolis Center
Wed 03:11:36 PM 44.8269 -93.4528 282° West 126 145 900 -387 Descending Minneapolis Center
Wed 03:13:00 PM 44.8167 -93.4500 289° West  Level FlightAware Approximate

Login

Don't have an account? Register now (free) for customized features, flight alerts, and more!